Flight Track Log - Related Links

Times and Time Zones

All times are in EDT time to prevent confusion due to time zone crossing. See the JBU462 flight status page for this flight to view local times or setup timezone preferences in your user account.


Time Position Orientation Groundspeed Altitude Reporting Facility
EDT Latitude Longitude Course Direction KTS MPH feet Rate Location/Type
Mon 02:19:48 PM 18.4450 -65.9700 43° Northeast 190 219 1,700  Level FlightAware ADS-B
Mon 02:19:56 PM 18.4530 -65.9690 North 188 216 1,800 1,000 Climbing FlightAware ADS-B
Mon 02:20:00 PM 18.4570 -65.9680 13° North 204 235 1,900 900 Climbing FlightAware ADS-B
Mon 02:20:16 PM 18.4720 -65.9670 North 223 257 2,100 667 Climbing FlightAware ADS-B
Mon 02:20:36 PM 18.4950 -65.9650 North 259 298 2,300 1,350 Climbing FlightAware ADS-B
Mon 02:20:56 PM 18.5200 -65.9630 North 275 316 3,000 2,625 Climbing FlightAware ADS-B
Mon 02:21:08 PM 18.5360 -65.9610 North 279 321 3,700 3,158 Climbing FlightAware ADS-B
Mon 02:21:34 PM 18.5700 -65.9580 North 284 327 5,000 3,125 Climbing FlightAware ADS-B
Mon 02:21:56 PM 18.5980 -65.9600 356° North 283 326 6,200 3,158 Climbing FlightAware ADS-B
Mon 02:22:12 PM 18.6200 -65.9610 358° North 285 328 7,000 2,850 Climbing FlightAware ADS-B
Mon 02:22:36 PM 18.6520 -65.9620 358° North 288 331 8,100 2,864 Climbing FlightAware ADS-B
Mon 02:22:56 PM 18.6790 -65.9640 356° North 288 331 9,100 2,556 Climbing FlightAware ADS-B
Mon 02:23:30 PM 18.7240 -65.9660 358° North 298 343 10,400 1,543 Climbing FlightAware ADS-B
Mon 02:24:06 PM 18.7780 -65.9680 358° North 338 389 10,900 1,083 Climbing FlightAware ADS-B
Mon 02:24:42 PM 18.8370 -65.9710 357° North 365 420 11,700 1,765 Climbing FlightAware ADS-B
Mon 02:25:14 PM 18.8920 -65.9740 357° North 370 426 12,900 2,057 Climbing FlightAware ADS-B
Mon 02:25:52 PM 18.9570 -65.9770 358° North 376 433 14,100 1,946 Climbing FlightAware ADS-B
Mon 02:26:28 PM 19.0220 -65.9780 359° North 382 440 15,300 1,833 Climbing FlightAware ADS-B
Mon 02:27:04 PM 19.0860 -65.9780 360° North 390 449 16,300 1,643 Climbing FlightAware ADS-B
Mon 02:27:52 PM 19.1730 -65.9760 North 395 455 17,600 1,643 Climbing FlightAware ADS-B
Mon 02:28:28 PM 19.2400 -65.9710 North 401 461 18,600 1,676 Climbing FlightAware ADS-B
Mon 02:29:00 PM 19.2990 -65.9670 North 404 465 19,500 1,588 Climbing FlightAware ADS-B
Mon 02:29:36 PM 19.3670 -65.9630 North 410 472 20,400 1,412 Climbing FlightAware ADS-B
Mon 02:30:08 PM 19.4280 -65.9590 North 418 481 21,100 1,324 Climbing FlightAware ADS-B
Mon 02:30:44 PM 19.4990 -65.9550 North 422 486 21,900 1,324 Climbing FlightAware ADS-B
Mon 02:31:16 PM 19.5620 -65.9510 North 424 488 22,600 1,333 Climbing FlightAware ADS-B
Mon 02:31:56 PM 19.6410 -65.9460 North 427 491 23,500 894 Climbing FlightAware ADS-B
Mon 02:32:50 PM 19.7370 -65.9400 North 430 495 24,000 333 Climbing FlightAware ADS-B
Mon 02:33:26 PM 19.7980 -65.9370 North 430 495 24,000  Level FlightAware ADS-B
Mon 02:34:02 PM 19.8590 -65.9330 North 430 495 24,000  Level FlightAware ADS-B
Mon 02:34:38 PM 19.9190 -65.9300 North 430 495 24,000  Level FlightAware ADS-B
Mon 02:35:15 PM 19.9820 -65.9260 North 430 495 24,000  Level FlightAware ADS-B
Mon 02:35:51 PM 20.0430 -65.9230 North 430 495 24,000 3,036 Level FlightAware ADS-B
Mon 02:36:38 PM 20.2000 -65.9000 North 460 529 28,200 2,692 Climbing San Juan Center
Mon 02:37:38 PM 20.3333 -65.9000 360° North 470 541 28,800 793 Climbing San Juan Center
Mon 02:38:39 PM 20.4667 -65.8833 North 480 552 29,800 992 Climbing San Juan Center
Mon 02:39:39 PM 20.6000 -65.8833 360° North 470 541 30,800 1,050 Climbing San Juan Center
Mon 02:40:39 PM 20.7167 -65.8667 North 470 541 31,900 1,000 Climbing San Juan Center
Mon 02:41:39 PM 20.8500 -65.8667 360° North 470 541 32,800 900 Climbing San Juan Center
Mon 02:42:39 PM 20.9833 -65.8500 North 460 529 33,700 900 Climbing San Juan Center
Mon 02:43:39 PM 21.1167 -65.8500 360° North 480 552 34,600 900 Climbing San Juan Center
Mon 02:44:39 PM 21.2333 -65.8333 North 470 541 35,500 700 Climbing San Juan Center
Mon 02:45:39 PM 21.3667 -65.8167 North 460 529 36,000 248 Climbing San Juan Center
Mon 02:46:40 PM 21.5000 -65.8167 360° North 450 518 36,000  Level San Juan Center
Mon 02:47:40 PM 21.6333 -65.8000 North 500 575 36,000  Level San Juan Center
Mon 02:48:40 PM 21.7667 -65.8000 360° North 470 541 36,000  Level San Juan Center
Mon 02:49:40 PM 21.9000 -65.8000 360° North 460 529 36,000  Level San Juan Center
Mon 02:50:40 PM 22.0167 -65.7833 North 460 529 36,000  Level San Juan Center
Mon 02:51:51 PM 22.0667 -65.8000 10° North 436 502 36,000  Level New York Oceanic (ODAPS)
Mon 02:58:00 PM 23.0223 -65.6228 10° North 436 502 36,000  Level FlightAware Transoceanic
Mon 02:59:00 PM 23.1417 -65.6005 10° North 436 502 36,000  Level FlightAware Transoceanic
Mon 03:00:00 PM 23.2611 -65.5782 10° North 436 502 36,000  Level FlightAware Transoceanic
Mon 03:01:00 PM 23.3806 -65.5558 10° North 436 502 36,000  Level FlightAware Transoceanic
Mon 03:02:00 PM 23.5000 -65.5333 351° North 436 502 36,000  Level FlightAware Transoceanic
Mon 03:03:00 PM 23.6303 -65.5558 351° North 436 502 36,000  Level FlightAware Transoceanic
Mon 03:04:00 PM 23.7606 -65.5784 351° North 436 502 36,000  Level FlightAware Transoceanic
Mon 03:05:00 PM 23.8909 -65.6010 351° North 436 502 36,000  Level FlightAware Transoceanic
Mon 03:06:00 PM 23.5000 -65.5333 351° North 454 522 36,000  Level New York Oceanic (ODAPS)
Mon 03:06:00 PM 24.0213 -65.6236 351° North 436 502 36,000  Level FlightAware Transoceanic
Mon 03:07:00 PM 24.1516 -65.6463 351° North 436 502 36,000  Level FlightAware Transoceanic
Mon 03:08:00 PM 24.2819 -65.6690 351° North 436 502 36,000  Level FlightAware Transoceanic
Mon 03:08:58 PM 23.5000 -65.5333 351° North 454 522 36,000  Level New York Oceanic (ODAPS)
Mon 03:09:00 PM 24.4122 -65.6918 351° North 436 502 36,000  Level FlightAware Transoceanic
Mon 03:10:00 PM 24.5425 -65.7146 351° North 436 502 36,000  Level FlightAware Transoceanic
Mon 03:11:00 PM 24.6728 -65.7375 351° North 436 502 36,000  Level FlightAware Transoceanic
Mon 03:12:00 PM 24.8030 -65.7604 351° North 454 522 36,000  Level FlightAware Transoceanic
Mon 03:13:00 PM 24.9333 -65.7833 North 454 522 36,000  Level FlightAware Transoceanic
Mon 03:14:00 PM 25.0579 -65.7735 North 454 522 36,000  Level FlightAware Transoceanic
Mon 03:15:00 PM 25.1824 -65.7637 North 454 522 36,000  Level FlightAware Transoceanic
Mon 03:15:59 PM 24.9333 -65.7833 North 461 531 36,000  Level New York Oceanic (ODAPS)
Mon 03:16:00 PM 25.3070 -65.7539 North 454 522 36,000  Level FlightAware Transoceanic
Mon 03:17:00 PM 25.4315 -65.7440 North 454 522 36,000  Level FlightAware Transoceanic
Mon 03:18:00 PM 25.5561 -65.7341 North 454 522 36,000  Level FlightAware Transoceanic
Mon 03:19:00 PM 25.6806 -65.7242 North 454 522 36,000  Level FlightAware Transoceanic
Mon 03:20:00 PM 25.8052 -65.7143 North 454 522 36,000  Level FlightAware Transoceanic
Mon 03:21:00 PM 25.9297 -65.7043 North 454 522 36,000  Level FlightAware Transoceanic
Mon 03:22:00 PM 25.9582 -65.7021 North 461 531 36,000  Level FlightAware Transoceanic
Mon 03:23:00 PM 26.0863 -65.6918 North 461 531 36,000  Level FlightAware Transoceanic
Mon 03:24:00 PM 26.2144 -65.6815 North 461 531 36,000  Level FlightAware Transoceanic
Mon 03:25:00 PM 26.3425 -65.6712 North 461 531 36,000  Level FlightAware Transoceanic
Mon 03:26:00 PM 26.4706 -65.6609 North 461 531 36,000  Level FlightAware Transoceanic
Mon 03:27:00 PM 26.5987 -65.6505 North 461 531 36,000  Level FlightAware Transoceanic
Mon 03:28:00 PM 26.7268 -65.6402 North 461 531 36,000  Level FlightAware Transoceanic
Mon 03:29:00 PM 26.8549 -65.6298 North 461 531 36,000  Level FlightAware Transoceanic
Mon 03:30:00 PM 26.9830 -65.6194 North 461 531 36,000  Level FlightAware Transoceanic
Mon 03:31:00 PM 27.1111 -65.6089 North 461 531 36,000  Level FlightAware Transoceanic
Mon 03:32:00 PM 27.2392 -65.5984 North 461 531 36,000  Level FlightAware Transoceanic
Mon 03:33:00 PM 27.3673 -65.5880 North 461 531 36,000  Level FlightAware Transoceanic
Mon 03:34:00 PM 27.4954 -65.5774 North 461 531 36,000  Level FlightAware Transoceanic
Mon 03:35:00 PM 27.6234 -65.5669 North 461 531 36,000  Level FlightAware Transoceanic
Mon 03:36:00 PM 27.7515 -65.5563 North 461 531 36,000  Level FlightAware Transoceanic
Mon 03:37:00 PM 27.8796 -65.5458 North 461 531 36,000  Level FlightAware Transoceanic
Mon 03:38:00 PM 28.0077 -65.5351 North 461 531 36,000  Level FlightAware Transoceanic
Mon 03:39:00 PM 28.1358 -65.5245 North 461 531 36,000  Level FlightAware Transoceanic
Mon 03:40:00 PM 28.2639 -65.5138 North 461 531 36,000  Level FlightAware Transoceanic
Mon 03:41:00 PM 28.3920 -65.5031 North 461 531 36,000  Level FlightAware Transoceanic
Mon 03:42:00 PM 28.5201 -65.4924 North 461 531 36,000  Level FlightAware Transoceanic
Mon 03:43:00 PM 28.6482 -65.4817 North 461 531 36,000  Level FlightAware Transoceanic
Mon 03:44:00 PM 28.7763 -65.4709 North 461 531 36,000  Level FlightAware Transoceanic
Mon 03:45:00 PM 28.9043 -65.4601 North 461 531 36,000  Level FlightAware Transoceanic
Mon 03:46:00 PM 29.0324 -65.4493 North 461 531 36,000  Level FlightAware Transoceanic
Mon 03:47:00 PM 29.1605 -65.4385 North 461 531 36,000  Level FlightAware Transoceanic
Mon 03:48:00 PM 29.2886 -65.4276 North 461 531 36,000 1,429 Level FlightAware Transoceanic
Mon 03:48:24 PM 29.2717 -65.3656 349° North 422 486 38,000  Climbing New York Center
Mon 03:49:00 PM 29.4167 -65.4167 349° North 461 531 36,000  Descending FlightAware Transoceanic
Mon 03:49:24 PM 29.3711 -65.4000 343° North 439 505 38,000  Climbing New York Center
Mon 03:50:00 PM 29.5435 -65.4441 349° North 461 531 36,000  Descending FlightAware Transoceanic
Mon 03:50:25 PM 29.5053 -65.4303 349° North 439 505 38,000  Climbing New York Center
Mon 03:51:00 PM 29.6704 -65.4716 349° North 461 531 36,000  Descending FlightAware Transoceanic
Mon 03:51:25 PM 29.6400 -65.4628 348° North 452 520 38,000  Climbing New York Center
Mon 03:52:00 PM 29.7973 -65.4992 349° North 461 531 36,000  Descending FlightAware Transoceanic
Mon 03:52:26 PM 29.7511 -65.4872 349° North 447 514 38,000 1,379 Climbing New York Center
Mon 03:53:27 PM 29.8919 -65.5219 348° North 468 539 38,000  Level New York Center
Mon 03:54:24 PM 30.0136 -65.5436 351° North 446 513 38,000  Level New York Center
Mon 03:55:26 PM 30.1292 -65.5728 348° North 451 519 38,000  Level New York Center
Mon 03:56:24 PM 30.2700 -65.6053 349° North 458 527 38,000  Level New York Center
Mon 03:57:24 PM 30.3939 -65.6319 349° North 458 527 38,000  Level New York Center
Mon 03:58:26 PM 30.5072 -65.6542 350° North 458 527 38,000  Level New York Center
Mon 03:59:24 PM 30.6458 -65.6872 348° North 453 521 38,000  Level New York Center
Mon 04:00:25 PM 30.7594 -65.7119 349° North 453 521 38,000  Level New York Center
Mon 04:01:25 PM 30.9000 -65.7428 349° North 453 521 38,000  Level New York Center
Mon 04:02:26 PM 31.0261 -65.7717 349° North 453 521 38,000  Level New York Center
Mon 04:03:26 PM 31.1419 -65.7992 349° North 461 531 38,000  Level New York Center
Mon 04:04:26 PM 31.2828 -65.8300 349° North 466 536 38,000  Level New York Center
Mon 04:05:24 PM 31.4089 -65.8617 348° North 461 531 38,000  Level New York Center
Mon 04:06:24 PM 31.5203 -65.8869 349° North 456 525 38,000  Level New York Center
Mon 04:07:25 PM 31.6547 -65.9158 350° North 451 519 38,000  Level New York Center
Mon 04:08:25 PM 31.7661 -65.9414 349° North 451 519 38,000  Level New York Center
Mon 04:09:26 PM 31.9050 -65.9728 349° North 452 520 38,000  Level New York Center
Mon 04:10:24 PM 32.0269 -66.0028 348° North 452 520 38,000  Level New York Center
Mon 04:11:24 PM 32.1425 -66.0283 349° North 452 520 38,000  Level New York Center
Mon 04:12:25 PM 32.2814 -66.0622 348° North 463 533 38,000  Level New York Center
Mon 04:13:26 PM 32.4139 -66.0919 349° North 473 544 38,000  Level New York Center
Mon 04:14:24 PM 32.5294 -66.1150 350° North 473 544 38,000  Level New York Center
Mon 04:15:25 PM 32.6683 -66.1517 347° North 473 544 38,000  Level New York Center
Mon 04:16:25 PM 32.7861 -66.1775 350° North 473 544 38,000  Level New York Center
Mon 04:17:26 PM 32.9292 -66.2092 349° North 468 539 38,000  Level New York Center
Mon 04:18:24 PM 33.0594 -66.2394 349° North 468 539 38,000  Level New York Center
Mon 04:19:24 PM 33.1750 -66.2653 349° North 468 539 38,000  Level New York Center
Mon 04:20:25 PM 33.3164 -66.3050 347° North 466 536 38,000  Level New York Center
Mon 04:21:26 PM 33.4506 -66.3303 351° North 471 542 38,000  Level New York Center
Mon 04:22:26 PM 33.5664 -66.3589 348° North 471 542 38,000  Level New York Center
Mon 04:23:24 PM 33.7075 -66.3939 348° North 471 542 38,000  Level New York Center
Mon 04:24:24 PM 33.8250 -66.4200 350° North 471 542 38,000  Level New York Center
Mon 04:25:25 PM 33.9661 -66.4553 348° North 471 542 38,000  Level New York Center
Mon 04:26:25 PM 34.0986 -66.4833 350° North 471 542 38,000  Level New York Center
Mon 04:27:26 PM 34.2100 -66.5128 348° North 470 541 38,000  Level New York Center
Mon 04:28:26 PM 34.3572 -66.5453 350° North 470 541 38,000  Level New York Center
Mon 04:29:24 PM 34.4836 -66.5767 348° North 476 548 38,000  Level New York Center
Mon 04:30:26 PM 34.6017 -66.6108 347° North 476 548 38,000  Level New York Center
Mon 04:31:26 PM 34.7447 -66.6467 348° North 477 549 38,000  Level New York Center
Mon 04:32:26 PM 34.8664 -66.6708 351° North 481 554 38,000  Level New York Center
Mon 04:33:25 PM 35.0156 -66.7011 351° North 489 563 38,000  Level New York Center
Mon 04:33:50 PM 34.8667 -66.6667 350° North 471 542 38,000  Level New York Oceanic (ODAPS)
Mon 04:34:26 PM 35.1481 -66.7300 350° North 477 549 38,000  Level New York Center
Mon 04:35:24 PM 35.2597 -66.7653 346° North 471 542 38,000  Level New York Center
Mon 04:36:25 PM 35.4086 -66.7831 354° North 478 550 38,000  Level New York Center
Mon 04:37:25 PM 35.5369 -66.8175 348° North 501 577 38,000 -4 Level New York Center
Mon 04:39:00 PM 35.7263 -66.8552 351° North  Level FlightAware Approximate
Mon 04:46:00 PM 36.5621 -67.0322 350° North  Level FlightAware Approximate
Mon 04:47:00 PM 36.6814 -67.0582 350° North  Level FlightAware Approximate
Mon 04:48:00 PM 36.8007 -67.0843 350° North  Level FlightAware Approximate
Mon 04:49:00 PM 36.9200 -67.1105 350° North  Level FlightAware Approximate
Mon 04:50:00 PM 37.0318 -67.1691 337° Northwest  Level FlightAware Approximate
Mon 04:51:00 PM 37.1436 -67.2279 337° Northwest  Level FlightAware Approximate
Mon 04:52:00 PM 37.2553 -67.2869 337° Northwest  Level FlightAware Approximate
Mon 04:53:00 PM 37.3671 -67.3460 337° Northwest  Level FlightAware Approximate
Mon 04:54:00 PM 37.4788 -67.4054 337° Northwest  Level FlightAware Approximate
Mon 04:55:00 PM 37.5854 -67.4780 346° North  Level Estimated
Mon 04:56:00 PM 37.7045 -67.5070 349° North  Level FlightAware Approximate
Mon 04:57:00 PM 37.8235 -67.5361 349° North  Level FlightAware Approximate
Mon 04:58:00 PM 37.9425 -67.5653 349° North  Level FlightAware Approximate
Mon 04:59:00 PM 38.0615 -67.5946 349° North  Level FlightAware Approximate
Mon 05:00:00 PM 38.1664 -67.6720 347° North  Level Estimated
Mon 05:00:12 PM 38.5322 -67.4969 347° North 460 529 37,900  Level New York Center
Mon 05:01:13 PM 38.6644 -67.5258 350° North 472 543 37,900 49 Level New York Center
Mon 05:02:14 PM 38.7925 -67.5600 348° North 472 543 38,000 50 Climbing New York Center
Mon 05:03:13 PM 38.9147 -67.6081 343° North 467 537 38,000 -50 Level New York Center
Mon 05:04:14 PM 39.0372 -67.6669 340° North 467 537 37,900 -50 Descending New York Center
Mon 05:05:12 PM 39.1458 -67.7508 329° Northwest 455 524 37,900  Level New York Center
Mon 05:06:13 PM 39.2583 -67.8292 332° Northwest 460 529 37,900 50 Level New York Center
Mon 05:07:13 PM 39.3747 -67.9025 334° Northwest 465 535 38,000  Climbing New York Center
Mon 05:08:14 PM 39.4889 -67.9758 334° Northwest 465 535 37,900 -50 Descending New York Center
Mon 05:09:14 PM 39.5950 -68.0553 330° Northwest 454 522 37,900 50 Level New York Center
Mon 05:10:14 PM 39.7072 -68.1347 331° Northwest 454 522 38,000 51 Climbing New York Center
Mon 05:11:12 PM 39.8233 -68.2089 334° Northwest 454 522 38,000 -25 Level New York Center
Mon 05:14:15 PM 40.1450 -68.4358 332° Northwest 475 547 37,900  Descending Boston Center
Mon 05:15:15 PM 40.2817 -68.5336 331° Northwest 470 541 38,000 -197 Climbing Boston Center
Mon 05:16:17 PM 40.3950 -68.6142 332° Northwest 470 541 37,500 -738 Descending Boston Center
Mon 05:17:17 PM 40.5081 -68.6922 332° Northwest 465 535 36,500 -950 Descending Boston Center
Mon 05:18:17 PM 40.6147 -68.7681 332° Northwest 465 535 35,600 -958 Descending Boston Center
Mon 05:19:16 PM 40.7258 -68.8494 331° Northwest 471 542 34,600 -1,000 Descending Boston Center
Mon 05:20:17 PM 40.8389 -68.9311 331° Northwest 476 548 33,600 -942 Descending Boston Center
Mon 05:21:17 PM 40.9475 -69.0047 333° Northwest 461 531 32,700 -978 Descending Boston Center
Mon 05:27:14 PM 41.6110 -69.4850 333° Northwest 433 498 26,800 -1,010 Descending FlightAware ADS-B
Mon 05:27:49 PM 41.6750 -69.5320 331° Northwest 429 494 26,100 -1,059 Descending FlightAware ADS-B
Mon 05:28:22 PM 41.7310 -69.5730 331° Northwest 405 466 25,600 -870 Descending FlightAware ADS-B
Mon 05:28:58 PM 41.7870 -69.6150 331° Northwest 380 437 25,100 -930 Descending FlightAware ADS-B
Mon 05:29:33 PM 41.8400 -69.6540 331° Northwest 368 423 24,500 -957 Descending FlightAware ADS-B
Mon 05:30:07 PM 41.8910 -69.6930 330° Northwest 365 420 24,000 -957 Descending FlightAware ADS-B
Mon 05:30:42 PM 41.9410 -69.7300 331° Northwest 358 412 23,400 -971 Descending FlightAware ADS-B
Mon 05:31:15 PM 41.9900 -69.7660 331° Northwest 355 409 22,900 -943 Descending FlightAware ADS-B
Mon 05:31:52 PM 42.0420 -69.8050 331° Northwest 352 405 22,300 -943 Descending FlightAware ADS-B
Mon 05:32:25 PM 42.0890 -69.8410 330° Northwest 351 404 21,800 -923 Descending FlightAware ADS-B
Mon 05:32:57 PM 42.1340 -69.8750 331° Northwest 349 402 21,300 -986 Descending FlightAware ADS-B
Mon 05:33:38 PM 42.1900 -69.9170 331° Northwest 338 389 20,600 -1,026 Descending FlightAware ADS-B
Mon 05:34:13 PM 42.2390 -69.9540 331° Northwest 337 388 20,000 -1,015 Descending FlightAware ADS-B
Mon 05:34:43 PM 42.2800 -69.9850 331° Northwest 337 388 19,500 -1,543 Descending FlightAware ADS-B
Mon 05:35:23 PM 42.3360 -70.0270 331° Northwest 336 387 18,200 -1,840 Descending FlightAware ADS-B
Mon 05:35:58 PM 42.3820 -70.0620 331° Northwest 329 379 17,200 -1,846 Descending FlightAware ADS-B
Mon 05:36:28 PM 42.4220 -70.0930 330° Northwest 319 367 16,200 -1,971 Descending FlightAware ADS-B
Mon 05:37:08 PM 42.4740 -70.1320 331° Northwest 319 367 14,900 -1,760 Descending FlightAware ADS-B
Mon 05:37:43 PM 42.5170 -70.1650 331° Northwest 301 346 14,000 -3,043 Descending FlightAware ADS-B
Mon 05:38:17 PM 42.5610 -70.1980 331° Northwest 304 350 11,400 -3,214 Descending FlightAware ADS-B
Mon 05:38:39 PM 42.5820 -70.2210 321° Northwest 284 327 11,000 -923 Descending FlightAware ADS-B
Mon 05:38:43 PM 42.5850 -70.2320 290° West 291 335 11,000  Level FlightAware ADS-B
Mon 05:38:54 PM 42.5890 -70.2510 286° West 301 346 11,000  Level FlightAware ADS-B
Mon 05:39:02 PM 42.5890 -70.2670 270° West 305 351 11,000  Level FlightAware ADS-B
Mon 05:39:14 PM 42.5850 -70.2890 256° West 316 364 11,000  Level FlightAware ADS-B
Mon 05:39:51 PM 42.5630 -70.3560 246° West 319 367 11,000  Level FlightAware ADS-B
Mon 05:40:23 PM 42.5440 -70.4120 245° Southwest 288 331 11,000  Level FlightAware ADS-B
Mon 05:40:38 PM 42.5410 -70.4370 261° West 249 287 11,000 -500 Level FlightAware ADS-B
Mon 05:41:11 PM 42.5460 -70.4830 278° West 218 251 10,600 -1,241 Descending FlightAware ADS-B
Mon 05:41:36 PM 42.5500 -70.5160 279° West 218 251 9,800 -2,000 Descending FlightAware ADS-B
Mon 05:41:56 PM 42.5510 -70.5430 273° West 226 260 9,100 -2,143 Descending FlightAware ADS-B
Mon 05:42:04 PM 42.5470 -70.5550 246° West 238 274 8,800 -2,211 Descending FlightAware ADS-B
Mon 05:42:15 PM 42.5390 -70.5660 225° Southwest 252 290 8,400 -2,400 Descending FlightAware ADS-B
Mon 05:42:24 PM 42.5290 -70.5720 204° Southwest 259 298 8,000 -2,400 Descending FlightAware ADS-B
Mon 05:42:30 PM 42.5210 -70.5730 185° South 265 305 7,800 -1,286 Descending FlightAware ADS-B
Mon 05:42:52 PM 42.4960 -70.5650 167° South 249 287 7,400 -1,000 Descending FlightAware ADS-B
Mon 05:43:12 PM 42.4750 -70.5560 162° South 233 268 7,100 -1,200 Descending FlightAware ADS-B
Mon 05:43:32 PM 42.4570 -70.5480 162° South 220 253 6,600 -1,500 Descending FlightAware ADS-B
Mon 05:43:48 PM 42.4390 -70.5440 171° South 207 238 6,200 -1,429 Descending FlightAware ADS-B
Mon 05:43:53 PM 42.4360 -70.5450 194° South 205 236 6,100 -2,000 Descending FlightAware ADS-B
Mon 05:44:03 PM 42.4270 -70.5510 206° Southwest 196 226 5,700 -2,000 Descending FlightAware ADS-B
Mon 05:44:08 PM 42.4250 -70.5550 236° Southwest 192 221 5,600 -1,500 Descending FlightAware ADS-B
Mon 05:44:15 PM 42.4220 -70.5620 240° Southwest 185 213 5,400 -2,000 Descending FlightAware ADS-B
Mon 05:44:23 PM 42.4200 -70.5710 253° West 178 205 5,100 -1,455 Descending FlightAware ADS-B
Mon 05:44:48 PM 42.4200 -70.5980 270° West 179 206 4,600 -1,333 Descending FlightAware ADS-B
Mon 05:45:08 PM 42.4210 -70.6200 274° West 181 208 4,100 -800 Descending FlightAware ADS-B
Mon 05:45:33 PM 42.4200 -70.6470 267° West 171 197 4,000 -171 Descending FlightAware ADS-B
Mon 05:45:43 PM 42.4180 -70.6580 256° West 172 198 4,000  Level FlightAware ADS-B
Mon 05:46:13 PM 42.4130 -70.6890 258° West 165 190 4,000  Level FlightAware ADS-B
Mon 05:46:33 PM 42.4090 -70.7100 256° West 167 192 4,000 -267 Level FlightAware ADS-B
Mon 05:46:58 PM 42.4050 -70.7350 258° West 165 190 3,800 -667 Descending FlightAware ADS-B
Mon 05:47:18 PM 42.4010 -70.7560 256° West 168 193 3,500 -933 Descending FlightAware ADS-B
Mon 05:47:43 PM 42.3960 -70.7820 255° West 166 191 3,100 -1,029 Descending FlightAware ADS-B
Mon 05:47:53 PM 42.3950 -70.7910 261° West 169 194 2,900 -1,000 Descending FlightAware ADS-B
Mon 05:48:13 PM 42.3910 -70.8120 256° West 166 191 2,600 -800 Descending FlightAware ADS-B
Mon 05:48:38 PM 42.3870 -70.8380 258° West 169 194 2,300 -933 Descending FlightAware ADS-B
Mon 05:48:58 PM 42.3830 -70.8590 256° West 165 190 1,900 -1,050 Descending FlightAware ADS-B
Mon 05:49:18 PM 42.3790 -70.8790 255° West 166 191 1,600 -750 Descending FlightAware ADS-B
Mon 05:49:38 PM 42.3760 -70.8990 259° West 156 180 1,400 -750 Descending FlightAware ADS-B
Mon 05:49:58 PM 42.3730 -70.9160 257° West 137 158 1,100 -800 Descending FlightAware ADS-B
Mon 05:50:23 PM 42.3690 -70.9360 255° West 129 148 800 -667 Descending FlightAware ADS-B
Mon 05:50:43 PM 42.3660 -70.9530 257° West 132 152 600 -364 Descending FlightAware ADS-B
Mon 05:51:29 PM 42.3600 -70.9860 256° West 133 153 400 -261 Descending FlightAware ADS-B
Mon 05:59:00 PM 42.3500 -71.0000 246° West  Level FlightAware Approximate

Login

Don't have an account? Register now (free) for customized features, flight alerts, and more!